createdAt,value
2018-06-09T00:02:06.333Z,15.98
2018-06-09T00:04:34.086Z,15.99
2018-06-09T00:07:01.835Z,16.00
2018-06-09T00:09:29.611Z,16.12
2018-06-09T00:11:57.355Z,16.29
2018-06-09T00:14:25.140Z,16.26
2018-06-09T00:16:52.819Z,16.07
2018-06-09T00:19:20.558Z,16.02
2018-06-09T00:21:48.340Z,16.18
2018-06-09T00:24:16.190Z,16.12
2018-06-09T00:26:43.972Z,16.00
2018-06-09T00:29:11.715Z,16.04
2018-06-09T00:31:39.431Z,16.17
2018-06-09T00:34:07.105Z,16.21
2018-06-09T00:36:34.816Z,16.06
2018-06-09T00:39:02.688Z,15.99
2018-06-09T00:41:30.366Z,15.92
2018-06-09T00:43:58.126Z,15.87
2018-06-09T00:46:25.877Z,15.95
2018-06-09T00:48:53.592Z,15.99
2018-06-09T00:51:21.285Z,16.10
2018-06-09T00:53:48.984Z,16.10
2018-06-09T00:56:22.499Z,16.24
2018-06-09T00:58:50.166Z,16.31
2018-06-09T01:01:17.906Z,16.19
2018-06-09T01:03:45.591Z,16.18
2018-06-09T01:06:13.304Z,16.14
2018-06-09T01:08:41.095Z,16.21
2018-06-09T01:11:08.802Z,16.23
2018-06-09T01:13:36.544Z,16.17
2018-06-09T01:16:04.370Z,16.11
2018-06-09T01:18:32.086Z,16.12
2018-06-09T01:20:59.810Z,16.09
2018-06-09T01:23:27.602Z,16.11
2018-06-09T01:25:55.381Z,16.09
2018-06-09T01:28:23.083Z,16.05
2018-06-09T01:30:50.800Z,16.06
2018-06-09T01:33:18.567Z,16.07
2018-06-09T01:35:46.260Z,16.10
2018-06-09T01:38:13.960Z,16.16
2018-06-09T01:40:41.718Z,16.21
2018-06-09T01:43:09.507Z,16.24
2018-06-09T01:45:37.243Z,16.23
2018-06-09T01:48:04.972Z,16.27
2018-06-09T01:50:32.681Z,16.23
2018-06-09T01:53:00.419Z,16.23
2018-06-09T01:55:28.087Z,16.19
2018-06-09T01:57:55.845Z,16.14
2018-06-09T02:00:23.537Z,16.20
2018-06-09T02:02:51.302Z,16.07
2018-06-09T02:05:19.049Z,16.02
2018-06-09T02:07:46.746Z,15.93
2018-06-09T02:10:14.517Z,15.91
2018-06-09T02:12:42.192Z,15.97
2018-06-09T02:15:10.219Z,16.01
2018-06-09T02:17:37.934Z,15.99
2018-06-09T02:20:05.684Z,16.02
2018-06-09T02:22:33.419Z,16.02
2018-06-09T02:25:01.178Z,16.01
2018-06-09T02:27:28.895Z,16.00
2018-06-09T02:29:56.622Z,16.02
2018-06-09T02:32:24.343Z,16.02
2018-06-09T02:34:52.073Z,15.97
2018-06-09T02:37:19.774Z,15.93
2018-06-09T02:39:47.538Z,15.88
2018-06-09T02:42:15.348Z,15.95
2018-06-09T02:44:43.028Z,15.86
2018-06-09T02:47:10.758Z,15.90
2018-06-09T02:49:38.453Z,15.94
2018-06-09T02:52:06.172Z,15.92
2018-06-09T02:54:33.921Z,15.97
2018-06-09T02:57:01.656Z,15.97
2018-06-09T02:59:29.321Z,16.15
2018-06-09T03:01:57.019Z,16.01
2018-06-09T03:04:24.804Z,15.92
2018-06-09T03:06:52.622Z,15.89
2018-06-09T03:09:20.394Z,15.86
2018-06-09T03:11:48.162Z,15.91
2018-06-09T03:14:15.850Z,15.97
2018-06-09T03:16:43.594Z,16.02
2018-06-09T03:19:11.293Z,15.94
2018-06-09T03:21:39.131Z,15.92
2018-06-09T03:24:06.856Z,15.92
2018-06-09T03:26:34.594Z,15.89
2018-06-09T03:29:02.400Z,15.90
2018-06-09T03:31:30.163Z,15.89
2018-06-09T03:33:57.922Z,15.90
2018-06-09T03:36:25.730Z,15.88
2018-06-09T03:38:53.668Z,15.93
2018-06-09T03:41:21.611Z,15.97
2018-06-09T03:43:49.303Z,15.91
2018-06-09T03:46:17.223Z,15.91
2018-06-09T03:48:45.080Z,15.92
2018-06-09T03:51:12.820Z,15.91
2018-06-09T03:53:40.558Z,15.89
2018-06-09T03:56:08.290Z,15.91
2018-06-09T03:58:36.060Z,15.94
2018-06-09T04:01:03.874Z,15.95
2018-06-09T04:03:31.602Z,15.87
2018-06-09T04:05:59.396Z,15.87
2018-06-09T04:08:27.167Z,15.93
2018-06-09T04:10:54.860Z,15.96
2018-06-09T04:13:22.574Z,15.99
2018-06-09T04:15:50.283Z,16.05
2018-06-09T04:18:18.015Z,16.24
2018-06-09T04:20:45.723Z,16.27
2018-06-09T04:23:13.467Z,16.33
2018-06-09T04:25:41.178Z,16.40
2018-06-09T04:28:09.088Z,16.46
2018-06-09T04:30:36.812Z,16.52
2018-06-09T04:33:04.553Z,16.56
2018-06-09T04:35:32.307Z,16.60
2018-06-09T04:38:00.237Z,16.68
2018-06-09T04:40:27.924Z,16.77
2018-06-09T04:42:55.651Z,16.82
2018-06-09T04:45:23.382Z,16.89
2018-06-09T04:47:51.140Z,16.80
2018-06-09T04:50:18.888Z,16.81
2018-06-09T04:52:46.586Z,16.83
2018-06-09T04:55:14.306Z,16.87
2018-06-09T04:57:42.016Z,16.84
2018-06-09T05:00:09.742Z,16.87
2018-06-09T05:02:37.517Z,16.96
2018-06-09T05:05:05.259Z,17.04
2018-06-09T05:07:33.166Z,17.17
2018-06-09T05:10:00.865Z,17.19
2018-06-09T05:12:29.148Z,17.40
2018-06-09T05:14:56.902Z,17.48
2018-06-09T05:17:24.615Z,17.54
2018-06-09T05:19:52.338Z,17.71
2018-06-09T05:22:20.036Z,17.72
2018-06-09T05:24:47.753Z,17.81
2018-06-09T05:27:15.469Z,18.09
2018-06-09T05:29:43.203Z,18.31
2018-06-09T05:32:10.928Z,18.45
2018-06-09T05:34:38.657Z,18.52
2018-06-09T05:37:06.517Z,18.73
2018-06-09T05:39:34.220Z,18.81
2018-06-09T05:42:01.955Z,19.22
2018-06-09T05:44:29.676Z,19.42
2018-06-09T05:46:57.501Z,19.28
2018-06-09T05:49:25.285Z,19.29
2018-06-09T05:51:52.985Z,19.16
2018-06-09T05:54:20.691Z,19.05
2018-06-09T05:56:48.565Z,18.81
2018-06-09T05:59:16.268Z,18.84
2018-06-09T06:01:44.042Z,18.77
2018-06-09T06:04:11.898Z,18.54
2018-06-09T06:06:39.655Z,18.60
2018-06-09T06:09:07.570Z,18.60
2018-06-09T06:11:35.344Z,18.53
2018-06-09T06:14:03.187Z,18.43
2018-06-09T06:16:31.092Z,18.38
2018-06-09T06:18:58.816Z,18.32
2018-06-09T06:21:26.615Z,18.25
2018-06-09T06:23:54.816Z,18.30
2018-06-09T06:26:22.706Z,18.24
2018-06-09T06:28:50.464Z,18.33
2018-06-09T06:31:18.240Z,18.28
2018-06-09T06:33:45.932Z,18.20
2018-06-09T06:36:13.702Z,18.17
2018-06-09T06:38:41.536Z,18.24
2018-06-09T06:41:09.320Z,18.31
2018-06-09T06:43:37.081Z,18.34
2018-06-09T06:46:04.823Z,18.44
2018-06-09T06:48:32.519Z,18.50
2018-06-09T06:51:00.256Z,18.56
2018-06-09T06:53:28.070Z,18.52
2018-06-09T06:55:55.758Z,18.55
2018-06-09T06:58:23.545Z,18.66
2018-06-09T07:00:51.318Z,18.68
2018-06-09T07:03:19.035Z,18.63
2018-06-09T07:05:46.777Z,18.65
2018-06-09T07:08:14.479Z,18.67
2018-06-09T07:10:42.380Z,18.67
2018-06-09T07:13:10.199Z,18.77
2018-06-09T07:15:37.926Z,18.79
2018-06-09T07:18:05.667Z,18.85
2018-06-09T07:20:33.360Z,18.93
2018-06-09T07:23:01.140Z,18.99
2018-06-09T07:25:28.851Z,19.02
2018-06-09T07:27:56.580Z,18.86
2018-06-09T07:30:24.439Z,19.08
2018-06-09T07:32:52.183Z,19.06
2018-06-09T07:35:20.132Z,19.16
2018-06-09T07:37:47.878Z,19.10
2018-06-09T07:40:15.606Z,19.12
2018-06-09T07:42:43.393Z,19.23
2018-06-09T07:45:11.141Z,19.29
2018-06-09T07:47:38.872Z,19.33
2018-06-09T07:50:06.572Z,19.43
2018-06-09T07:52:34.332Z,19.49
2018-06-09T07:55:02.052Z,19.59
2018-06-09T07:57:29.810Z,19.61
2018-06-09T07:59:57.556Z,19.59
2018-06-09T08:02:25.410Z,19.64
2018-06-09T08:04:53.144Z,19.72
2018-06-09T08:07:20.838Z,20.01
2018-06-09T08:09:48.568Z,20.26
2018-06-09T08:20:56.340Z,20.96
2018-06-09T08:23:24.123Z,21.05
2018-06-09T08:25:51.878Z,21.00
2018-06-09T08:28:19.631Z,21.16
2018-06-09T08:30:47.366Z,21.54
2018-06-09T08:33:15.127Z,21.78
2018-06-09T08:35:42.892Z,22.15
2018-06-09T08:38:10.633Z,22.35
2018-06-09T08:40:38.367Z,22.68
2018-06-09T08:43:06.217Z,22.91
2018-06-09T08:45:33.969Z,23.33
2018-06-09T08:48:01.719Z,23.55
2018-06-09T08:50:29.526Z,23.62
2018-06-09T08:52:57.260Z,24.05
2018-06-09T08:55:25.005Z,24.04
2018-06-09T08:57:52.740Z,24.27
2018-06-09T09:00:20.449Z,24.38
2018-06-09T09:02:48.211Z,24.89
2018-06-09T09:05:15.943Z,25.27
2018-06-09T09:07:43.703Z,25.19
2018-06-09T09:10:11.498Z,25.40
2018-06-09T09:12:39.225Z,26.07
2018-06-09T09:15:06.992Z,26.81
2018-06-09T09:17:34.710Z,26.80
2018-06-09T09:20:02.415Z,27.09
2018-06-09T09:22:30.212Z,26.69
2018-06-09T09:24:57.930Z,26.21
2018-06-09T09:27:25.632Z,26.90
2018-06-09T09:29:53.357Z,27.82
2018-06-09T09:32:21.956Z,28.52
2018-06-09T09:34:49.875Z,29.07
2018-06-09T09:37:17.608Z,29.35
2018-06-09T09:39:45.339Z,29.19
2018-06-09T09:42:13.098Z,29.97
2018-06-09T09:44:40.790Z,30.34
2018-06-09T09:47:08.500Z,30.75
2018-06-09T09:49:36.218Z,31.42
2018-06-09T09:52:04.020Z,31.51
2018-06-09T09:54:31.706Z,31.35
2018-06-09T09:56:59.360Z,30.22
2018-06-09T09:59:27.085Z,29.88
2018-06-09T10:01:54.835Z,29.93
2018-06-09T10:04:22.553Z,30.08
2018-06-09T10:06:50.287Z,30.54
2018-06-09T10:09:17.997Z,30.41
2018-06-09T10:11:45.734Z,30.97
2018-06-09T10:14:13.463Z,31.08
2018-06-09T10:16:41.171Z,31.08
2018-06-09T10:19:08.891Z,30.97
2018-06-09T10:21:36.580Z,31.46
2018-06-09T10:24:04.360Z,32.05
2018-06-09T10:26:32.096Z,32.42
2018-06-09T10:28:59.867Z,32.23
2018-06-09T10:31:27.561Z,31.47
2018-06-09T10:33:55.299Z,30.18
2018-06-09T10:36:23.149Z,30.47
2018-06-09T10:38:50.860Z,30.95
2018-06-09T10:41:18.579Z,31.00
2018-06-09T10:43:46.328Z,31.34
2018-06-09T10:46:14.063Z,31.85
2018-06-09T10:48:41.767Z,32.18
2018-06-09T10:51:09.497Z,32.24
2018-06-09T10:53:37.190Z,32.35
2018-06-09T10:56:04.908Z,32.65
2018-06-09T10:58:32.711Z,32.70
2018-06-09T11:01:00.479Z,32.64
2018-06-09T11:03:28.347Z,32.29
2018-06-09T11:05:56.027Z,31.34
2018-06-09T11:08:23.796Z,31.75
2018-06-09T11:10:51.526Z,31.82
2018-06-09T11:13:19.225Z,31.68
2018-06-09T11:15:46.978Z,31.70
2018-06-09T11:18:14.791Z,31.34
2018-06-09T11:20:42.492Z,31.15
2018-06-09T11:23:10.222Z,31.14
2018-06-09T11:25:37.989Z,31.42
2018-06-09T11:28:05.720Z,31.58
2018-06-09T11:30:33.422Z,31.02
2018-06-09T11:33:01.167Z,30.98
2018-06-09T11:35:28.864Z,30.62
2018-06-09T11:37:56.555Z,30.83
2018-06-09T11:40:24.250Z,30.92
2018-06-09T11:42:51.954Z,30.90
2018-06-09T11:45:19.620Z,30.47
2018-06-09T11:47:47.306Z,30.00
2018-06-09T11:50:15.004Z,30.00
2018-06-09T11:52:42.704Z,30.07
2018-06-09T11:55:10.436Z,30.19
2018-06-09T11:57:38.155Z,30.03
2018-06-09T12:00:05.868Z,29.73
2018-06-09T12:02:33.591Z,29.69
2018-06-09T12:05:01.321Z,29.66
2018-06-09T12:07:29.051Z,29.79
2018-06-09T12:09:56.763Z,29.13
2018-06-09T12:12:24.514Z,29.37
2018-06-09T12:14:52.253Z,29.30
2018-06-09T12:17:20.217Z,29.05
2018-06-09T12:19:47.843Z,29.20
2018-06-09T12:22:15.566Z,28.97
2018-06-09T12:24:43.295Z,28.95
2018-06-09T12:27:11.002Z,28.81
2018-06-09T12:29:38.700Z,28.05
2018-06-09T12:32:06.453Z,27.73
2018-06-09T12:34:34.181Z,27.14
2018-06-09T12:37:01.906Z,26.12
2018-06-09T12:39:29.643Z,24.93
2018-06-09T12:41:57.559Z,23.77
2018-06-09T12:44:25.226Z,23.26
2018-06-09T12:46:52.909Z,22.84
2018-06-09T12:49:20.600Z,22.71
2018-06-09T12:51:48.312Z,22.39
2018-06-09T12:54:16.005Z,22.28
2018-06-09T12:56:43.708Z,22.18
2018-06-09T12:59:11.403Z,22.06
2018-06-09T13:01:39.086Z,21.72
2018-06-09T13:04:06.810Z,21.60
2018-06-09T13:06:34.486Z,21.42
2018-06-09T13:09:02.296Z,21.23
2018-06-09T13:11:30.039Z,21.51
2018-06-09T13:13:57.757Z,21.46
2018-06-09T13:16:25.501Z,21.45
2018-06-09T13:18:53.204Z,21.64
2018-06-09T13:21:20.910Z,22.00
2018-06-09T13:23:48.635Z,22.17
2018-06-09T13:26:16.319Z,21.99
2018-06-09T13:28:44.092Z,21.75
2018-06-09T13:31:11.860Z,21.84
2018-06-09T13:33:39.582Z,22.05
2018-06-09T13:36:07.352Z,22.26
2018-06-09T13:38:35.099Z,22.42
2018-06-09T13:41:02.790Z,22.52
2018-06-09T13:43:30.700Z,22.44
2018-06-09T13:45:58.439Z,21.99
2018-06-09T13:48:26.153Z,21.51
2018-06-09T13:50:53.931Z,21.46
2018-06-09T13:53:21.658Z,21.47
2018-06-09T13:55:49.356Z,21.62
2018-06-09T13:58:17.118Z,21.84
2018-06-09T14:00:44.822Z,22.12
2018-06-09T14:03:12.521Z,22.27
2018-06-09T14:05:40.225Z,22.14
2018-06-09T14:08:07.942Z,22.12
2018-06-09T14:10:35.736Z,22.06
2018-06-09T14:13:03.460Z,22.06
2018-06-09T14:15:31.235Z,22.16
2018-06-09T14:17:58.947Z,22.16
2018-06-09T14:20:26.644Z,22.14
2018-06-09T14:22:55.203Z,22.03
2018-06-09T14:25:23.167Z,21.90
2018-06-09T14:27:50.856Z,21.72
2018-06-09T14:30:18.555Z,21.83
2018-06-09T14:32:46.337Z,22.00
2018-06-09T14:35:14.064Z,21.82
2018-06-09T14:37:41.776Z,21.44
2018-06-09T14:40:09.511Z,21.24
2018-06-09T14:42:37.219Z,21.17
2018-06-09T14:45:05.018Z,21.02
2018-06-09T14:47:32.733Z,21.01
2018-06-09T14:50:00.434Z,21.02
2018-06-09T14:52:28.150Z,21.05
2018-06-09T14:54:56.120Z,21.07
2018-06-09T14:57:23.828Z,21.08
2018-06-09T14:59:51.547Z,21.34
2018-06-09T15:02:19.228Z,21.49
2018-06-09T15:04:46.962Z,21.93
2018-06-09T15:07:14.682Z,22.05
2018-06-09T15:09:42.419Z,21.98
2018-06-09T15:12:10.122Z,22.35
2018-06-09T15:14:37.838Z,22.20
2018-06-09T15:17:05.565Z,22.44
2018-06-09T15:19:33.336Z,22.22
2018-06-09T15:22:01.071Z,22.46
2018-06-09T15:24:28.839Z,22.37
2018-06-09T15:26:56.587Z,22.71
2018-06-09T15:29:24.272Z,22.90
2018-06-09T15:31:51.966Z,22.80
2018-06-09T15:34:19.696Z,22.86
2018-06-09T15:36:47.433Z,22.67
2018-06-09T15:39:15.469Z,22.71
2018-06-09T15:41:43.175Z,22.72
2018-06-09T15:44:10.891Z,22.75
2018-06-09T15:46:38.652Z,22.80
2018-06-09T15:49:06.336Z,22.59
2018-06-09T15:51:34.039Z,22.67
2018-06-09T15:54:01.759Z,22.72
2018-06-09T15:56:29.484Z,22.72
2018-06-09T15:58:57.247Z,22.82
2018-06-09T16:01:25.070Z,22.72
2018-06-09T16:03:52.803Z,22.76
2018-06-09T16:06:20.510Z,22.87
2018-06-09T16:08:48.249Z,22.77
2018-06-09T16:11:15.946Z,22.76
2018-06-09T16:13:43.707Z,22.86
2018-06-09T16:16:11.507Z,23.14
2018-06-09T16:18:39.246Z,22.81
2018-06-09T16:21:06.976Z,22.76
2018-06-09T16:23:34.660Z,22.72
2018-06-09T16:26:02.362Z,22.81
2018-06-09T16:28:30.125Z,22.91
2018-06-09T16:30:57.900Z,23.00
2018-06-09T16:33:25.572Z,23.15
2018-06-09T16:35:53.252Z,23.29
2018-06-09T16:38:20.967Z,23.22
2018-06-09T16:40:48.651Z,23.25
2018-06-09T16:43:16.373Z,23.08
2018-06-09T16:45:44.146Z,23.23
2018-06-09T16:48:11.891Z,23.22
2018-06-09T16:50:39.595Z,23.23
2018-06-09T16:53:07.299Z,23.08
2018-06-09T16:55:35.035Z,22.97
2018-06-09T16:58:02.874Z,22.84
2018-06-09T17:00:30.494Z,22.79
2018-06-09T17:02:58.159Z,22.79
2018-06-09T17:05:25.842Z,22.81
2018-06-09T17:07:53.567Z,22.69
2018-06-09T17:10:21.331Z,22.68
2018-06-09T17:12:49.035Z,22.88
2018-06-09T17:15:16.764Z,22.76
2018-06-09T17:17:44.530Z,22.70
2018-06-09T17:20:12.239Z,22.78
2018-06-09T17:22:39.953Z,22.68
2018-06-09T17:25:07.677Z,22.55
2018-06-09T17:27:35.397Z,22.49
2018-06-09T17:30:03.174Z,22.58
2018-06-09T17:32:30.914Z,22.14
2018-06-09T17:34:58.645Z,21.98
2018-06-09T17:37:26.359Z,21.99
2018-06-09T17:39:54.085Z,22.28
2018-06-09T17:42:21.803Z,22.30
2018-06-09T17:44:49.550Z,22.26
2018-06-09T17:47:17.259Z,22.04
2018-06-09T17:49:44.965Z,21.98
2018-06-09T17:52:12.696Z,22.01
2018-06-09T17:54:40.353Z,21.93
2018-06-09T17:57:08.081Z,21.95
2018-06-09T17:59:35.817Z,21.95
2018-06-09T18:02:03.591Z,21.82
2018-06-09T18:04:31.335Z,21.88
2018-06-09T18:06:59.167Z,21.96
2018-06-09T18:09:26.859Z,21.91
2018-06-09T18:11:54.554Z,21.79
2018-06-09T18:14:22.255Z,21.82
2018-06-09T18:16:49.985Z,21.79
2018-06-09T18:19:17.702Z,21.82
2018-06-09T18:21:45.409Z,21.83
2018-06-09T18:24:13.105Z,21.86
2018-06-09T18:26:40.816Z,21.77
2018-06-09T18:29:08.599Z,21.78
2018-06-09T18:31:36.370Z,21.80
2018-06-09T18:34:04.268Z,21.76
2018-06-09T18:36:31.969Z,21.76
2018-06-09T18:38:59.661Z,21.51
2018-06-09T18:41:27.342Z,21.58
2018-06-09T18:43:55.049Z,21.57
2018-06-09T18:46:22.757Z,21.58
2018-06-09T18:48:50.510Z,21.42
2018-06-09T18:51:18.212Z,21.55
2018-06-09T18:53:45.895Z,21.27
2018-06-09T18:56:13.593Z,21.15
2018-06-09T18:58:41.383Z,20.93
2018-06-09T19:01:09.114Z,20.86
2018-06-09T19:03:36.857Z,20.89
2018-06-09T19:06:04.628Z,20.74
2018-06-09T19:08:32.374Z,20.84
2018-06-09T19:11:00.272Z,20.65
2018-06-09T19:13:28.003Z,20.48
2018-06-09T19:15:55.731Z,20.56
2018-06-09T19:18:23.452Z,20.42
2018-06-09T19:20:51.164Z,20.43
2018-06-09T19:23:18.880Z,20.28
2018-06-09T19:25:46.655Z,20.31
2018-06-09T19:28:14.364Z,20.43
2018-06-09T19:30:42.111Z,20.43
2018-06-09T19:33:09.909Z,20.51
2018-06-09T19:35:37.625Z,20.47
2018-06-09T19:38:05.307Z,20.51
2018-06-09T19:40:33.211Z,20.46
2018-06-09T19:43:00.925Z,20.48
2018-06-09T19:45:28.971Z,20.30
2018-06-09T19:47:56.685Z,20.23
2018-06-09T19:50:24.407Z,20.19
2018-06-09T19:52:52.271Z,20.01
2018-06-09T19:55:19.993Z,19.96
2018-06-09T19:57:47.703Z,19.99
2018-06-09T20:00:15.467Z,20.27
2018-06-09T20:02:43.139Z,20.41
2018-06-09T20:05:10.918Z,20.21
2018-06-09T20:07:38.633Z,19.95
2018-06-09T20:10:06.411Z,19.75
2018-06-09T20:12:34.116Z,19.85
2018-06-09T20:15:01.931Z,19.60
2018-06-09T20:17:29.993Z,19.45
2018-06-09T20:19:57.657Z,19.20
2018-06-09T20:22:25.330Z,19.18
2018-06-09T20:24:53.130Z,19.22
2018-06-09T20:27:20.856Z,19.16
2018-06-09T20:29:48.603Z,19.27
2018-06-09T20:32:16.391Z,19.42
2018-06-09T20:34:44.143Z,19.41
2018-06-09T20:37:11.907Z,19.25
2018-06-09T20:39:39.646Z,19.31
2018-06-09T20:42:07.464Z,19.19
2018-06-09T20:44:35.205Z,19.31
2018-06-09T20:47:02.970Z,19.24
2018-06-09T20:49:30.693Z,19.30
2018-06-09T20:51:58.480Z,19.15
2018-06-09T20:54:26.256Z,19.07
2018-06-09T20:56:53.993Z,19.02
2018-06-09T20:59:21.800Z,19.06
2018-06-09T21:01:49.619Z,18.91
2018-06-09T21:04:17.315Z,19.14
2018-06-09T21:06:44.998Z,19.02
2018-06-09T21:09:12.747Z,18.95
2018-06-09T21:11:40.486Z,18.92
2018-06-09T21:14:08.267Z,19.08
2018-06-09T21:16:36.006Z,19.04
2018-06-09T21:19:03.875Z,19.00
2018-06-09T21:21:31.559Z,18.98
2018-06-09T21:23:59.242Z,18.84
2018-06-09T21:26:32.597Z,18.89
2018-06-09T21:29:00.347Z,18.79
2018-06-09T21:31:33.031Z,18.76
2018-06-09T21:34:06.407Z,18.67
2018-06-09T21:36:39.867Z,18.56
2018-06-09T21:39:13.742Z,18.55
2018-06-09T21:41:47.208Z,18.71
2018-06-09T21:44:20.747Z,18.65
2018-06-09T21:46:48.673Z,18.61
2018-06-09T21:49:16.654Z,18.58
2018-06-09T21:51:44.374Z,18.54
2018-06-09T21:54:12.051Z,18.53
2018-06-09T21:56:39.741Z,18.51
2018-06-09T21:59:07.482Z,18.47
2018-06-09T22:01:35.587Z,18.37
2018-06-09T22:04:03.318Z,18.40
2018-06-09T22:06:31.002Z,18.45
2018-06-09T22:08:58.753Z,18.51
2018-06-09T22:11:26.507Z,18.28
2018-06-09T22:13:54.474Z,18.35
2018-06-09T22:16:22.172Z,18.51
2018-06-09T22:18:49.868Z,18.50
2018-06-09T22:21:17.604Z,18.30
2018-06-09T22:23:45.292Z,18.32
2018-06-09T22:26:16.252Z,18.13
2018-06-09T22:28:43.985Z,18.08
2018-06-09T22:31:11.686Z,18.09
2018-06-09T22:33:39.377Z,18.09
2018-06-09T22:36:07.160Z,18.03
2018-06-09T22:38:34.914Z,18.04
2018-06-09T22:41:02.635Z,17.95
2018-06-09T22:43:30.358Z,18.05
2018-06-09T22:45:58.098Z,18.10
2018-06-09T22:48:25.859Z,18.33
2018-06-09T22:50:53.632Z,18.16
2018-06-09T22:53:21.355Z,18.13
2018-06-09T22:55:49.035Z,17.97
2018-06-09T22:58:16.734Z,17.90
2018-06-09T23:00:48.448Z,17.82
2018-06-09T23:03:16.436Z,17.78
2018-06-09T23:05:44.598Z,17.80
2018-06-09T23:08:12.311Z,17.81
2018-06-09T23:10:40.024Z,17.96
2018-06-09T23:13:07.721Z,18.07
2018-06-09T23:15:35.596Z,17.92
2018-06-09T23:18:03.309Z,17.92
2018-06-09T23:20:31.059Z,17.88
2018-06-09T23:22:58.760Z,17.86
2018-06-09T23:25:26.529Z,18.13
2018-06-09T23:27:54.202Z,18.09
2018-06-09T23:30:21.896Z,18.01
2018-06-09T23:32:49.622Z,17.91
2018-06-09T23:35:17.343Z,17.90
2018-06-09T23:37:45.028Z,17.89
2018-06-09T23:40:12.822Z,17.85
2018-06-09T23:42:40.541Z,18.09
2018-06-09T23:45:08.249Z,18.07
2018-06-09T23:47:35.932Z,18.04
2018-06-09T23:50:03.743Z,17.97
2018-06-09T23:52:31.472Z,18.02
2018-06-09T23:54:59.183Z,17.89
2018-06-09T23:57:26.874Z,17.78
2018-06-09T23:59:54.545Z,17.79
